Terminal Aerodrome Forecast
Issued by NWS

Current Version | Previous Version | Graphics & Text | Print | Product List | Glossary On
Versions: 1 2 3 4 5 6 7 8 9 10 11 12 13 14 15 16 17 18 19 20 21 22 23 24 25
779
FTUS41 KILN 220402 AAC
TAFLUK
TAF AMD
KLUK 220402Z 2204/2224 00000KT 3SM -RA OVC040
      TEMPO 2204/2208 1SM BR OVC018
     FM220800 00000KT 2SM BR VCSH OVC018
     FM221100 00000KT 2SM BR OVC009
     FM221500 19004KT 5SM BR OVC012
     FM221900 19005KT P6SM BKN025=

USA.gov is the U.S. government's official web portal to all federal, state and local government web resources and services.